Latest Weather Observations for Snowtown

IDS60801

Issued at 4:01 pm CST Tuesday 7 July 2015 (issued every 30 minutes, with the page automatically refreshed every 10 minutes)

About weather observations | Map of weather stations | Latest weather observations for SA | Other Formats
Station Details ID: 021133 Name: RAYVILLE PARK Lat: -33.77 Lon: 138.22 Height: 109.1 m
Data from the previous 72 hours. | See also: Recent months at Snowtown
Date/Time
CST
Temp
°C
App
Temp
°C
Dew
Point
Rel
Hum
%
Delta-T
°C
Wind Press
QNH
hPa
Press
MSL
hPa
Rain
since 9 am
mm
Dir
 
Spd
km/h
Gust
km/h
Spd
kts
Gust
kts
07/04:00pm 11.9 7.9 9.1 83 1.4 W 20 24 11 13 1022.0 1022.2 0.0
07/03:30pm 12.9 8.2 9.4 79 1.8 W 24 30 13 16 1021.8 1022.0 0.0
07/03:00pm 14.3 10.5 9.7 74 2.4 WNW 20 24 11 13 1021.8 1022.0 0.0
07/02:30pm 14.6 10.8 9.0 69 2.9 WNW 19 24 10 13 1021.8 1022.0 0.0
07/02:00pm 14.5 10.7 9.9 74 2.4 NW 20 26 11 14 1021.8 1022.0 0.0
07/01:30pm 15.3 12.0 10.9 75 2.3 NW 19 24 10 13 1021.8 1022.0 0.0
07/01:00pm 15.0 12.5 8.3 64 3.4 WNW 11 17 6 9 1022.1 1022.3 0.0
07/12:30pm 14.7 12.8 7.5 62 3.6 N 7 11 4 6 1022.5 1022.6 0.0
07/12:00pm 14.2 11.8 8.6 69 2.8 NNW 11 15 6 8 1022.9 1023.0 0.0
07/11:30am 13.9 11.6 10.5 80 1.8 NW 13 19 7 10 1023.5 1023.6 0.0
07/11:00am 12.3 9.5 9.9 85 1.2 NW 15 19 8 10 1023.6 1023.7 0.0
07/10:30am 12.1 8.9 8.6 79 1.7 W 15 20 8 11 1023.6 1023.7 0.0
07/10:00am 11.3 8.4 9.7 90 0.8 W 15 19 8 10 1023.5 1023.6 0.0
07/09:30am 10.9 7.6 9.7 92 0.6 WSW 17 20 9 11 1023.4 1023.5 0.0
07/09:00am 10.5 9.1 9.7 95 0.4 WSW 7 13 4 7 1023.2 1023.3 3.2
07/08:30am 9.6 8.2 9.5 99 0.0 WSW 7 11 4 6 1023.0 1023.1 3.2
07/08:00am 6.7 4.5 6.1 96 0.3 SW 7 11 4 6 1022.9 1023.0 3.0
07/07:30am 8.6 5.7 8.3 98 0.1 W 13 19 7 10 1022.3 1022.5 3.0
07/07:00am 8.2 5.6 7.8 97 0.2 WSW 11 13 6 7 1022.2 1022.4 3.0
07/06:30am 9.3 6.6 9.0 98 0.1 WSW 13 17 7 9 1021.8 1022.0 3.0
07/06:00am 8.6 5.7 8.3 98 0.1 WSW 13 15 7 8 1021.4 1021.6 3.0
07/05:30am 6.8 4.7 5.9 94 0.4 WSW 6 11 3 6 1021.3 1021.5 3.0
07/05:00am 9.0 6.2 8.4 96 0.3 W 13 13 7 7 1021.0 1021.2 3.0
07/04:30am 9.3 6.9 8.7 96 0.3 WSW 11 13 6 7 1021.0 1021.2 3.0
07/04:00am 9.7 7.4 8.9 95 0.4 SW 11 15 6 8 1020.9 1021.1 2.8
07/03:30am 10.0 7.0 9.2 95 0.4 W 15 19 8 10 1020.8 1021.0 2.8
07/03:00am 10.0 6.2 9.2 95 0.4 W 19 24 10 13 1020.8 1021.0 2.8
07/02:30am 10.0 6.2 9.2 95 0.4 W 19 24 10 13 1020.9 1021.1 2.8
07/02:00am 10.2 6.3 9.6 96 0.3 W 20 24 11 13 1020.8 1021.0 2.8
07/01:30am 9.3 6.2 8.7 96 0.3 W 15 19 8 10 1020.8 1021.0 2.8
07/01:00am 9.9 6.5 9.3 96 0.3 W 17 22 9 12 1020.6 1020.8 2.8
07/12:30am 10.3 7.0 9.7 96 0.3 W 17 26 9 14 1020.8 1021.0 2.8
07/12:00am 9.4 6.6 8.6 95 0.4 W 13 13 7 7 1020.9 1021.1 2.6
 
Date/Time
CST
Temp
°C
App
Temp
°C
Dew
Point
Rel
Hum
%
Delta-T
°C
Wind Press
QNH
hPa
Press
MSL
hPa
Rain
since 9 am
mm
Dir
 
Spd
km/h
Gust
km/h
Spd
kts
Gust
kts
06/11:30pm 10.2 8.0 9.4 95 0.4 W 11 13 6 7 1021.0 1021.2 2.6
06/11:00pm 10.2 8.1 9.6 96 0.3 WNW 11 17 6 9 1021.1 1021.3 2.4
06/10:30pm 10.6 7.8 10.1 97 0.3 WSW 15 19 8 10 1021.0 1021.2 2.4
06/10:00pm 9.2 7.6 8.9 98 0.1 WSW 7 11 4 6 1021.0 1021.2 0.0
06/09:30pm 6.6 4.4 6.2 97 0.2 NW 7 9 4 5 1020.7 1020.9 0.0
06/09:00pm 6.9 3.9 6.2 95 0.3 NW 11 13 6 7 1020.5 1020.7 0.0
06/08:30pm 7.3 4.7 6.1 92 0.5 WNW 9 11 5 6 1020.2 1020.4 0.0
06/08:00pm 8.4 5.5 6.7 89 0.8 W 11 15 6 8 1020.0 1020.2 0.0
06/07:30pm 10.6 8.6 8.7 88 0.9 SSW 9 13 5 7 1019.7 1019.9 0.0
06/07:00pm 10.7 8.9 9.3 91 0.7 S 9 13 5 7 1019.5 1019.7 0.0
06/06:30pm 10.2 7.3 8.3 88 0.9 W 13 17 7 9 1019.2 1019.4 0.0
06/06:00pm 10.9 7.0 8.5 85 1.2 W 19 22 10 12 1018.9 1019.1 0.0
06/05:30pm 11.4 7.5 8.8 84 1.3 WNW 19 24 10 13 1018.6 1018.8 0.0
06/05:00pm 12.2 7.9 7.9 75 2.1 W 20 24 11 13 1018.2 1018.4 0.0
06/04:30pm 13.1 8.1 8.0 71 2.5 W 24 32 13 17 1018.0 1018.1 0.0
06/04:00pm 14.5 8.7 8.0 65 3.3 W 28 37 15 20 1017.8 1017.9 0.0
06/03:30pm 15.1 8.9 7.9 62 3.6 W 30 41 16 22 1017.6 1017.7 0.0
06/03:00pm 15.6 9.8 8.1 61 3.8 W 28 39 15 21 1017.3 1017.4 0.0
06/02:30pm 14.9 8.6 7.5 61 3.7 W 30 44 16 24 1017.2 1017.3 0.0
06/02:00pm 15.5 9.0 8.0 61 3.8 W 32 43 17 23 1017.2 1017.3 0.0
06/01:30pm 15.2 8.5 7.5 60 3.8 W 32 41 17 22 1017.4 1017.5 0.0
06/01:00pm 15.3 9.0 7.6 60 3.8 W 30 39 16 21 1017.5 1017.6 0.0
06/12:30pm 14.8 8.9 9.0 68 3.0 WNW 30 37 16 20 1017.8 1017.9 0.0
06/12:00pm 14.8 11.2 10.6 76 2.2 WNW 20 28 11 15 1018.2 1018.4 0.0
06/11:30am 14.4 9.9 10.0 75 2.3 NNW 24 32 13 17 1018.6 1018.8 0.0
06/11:00am 13.7 8.7 9.7 77 2.1 NW 26 32 14 17 1018.7 1018.9 0.0
06/10:30am 13.5 9.5 10.3 81 1.7 NW 22 30 12 16 1018.9 1019.1 0.0
06/10:00am 12.9 8.6 9.5 80 1.7 NW 22 28 12 15 1018.7 1018.9 0.0
06/09:30am 11.2 7.2 8.2 82 1.5 NW 19 24 10 13 1018.4 1018.6 0.0
06/09:00am 11.7 8.2 8.7 82 1.5 NW 17 22 9 12 1018.1 1018.3 -
06/08:30am 10.6 6.3 7.8 83 1.4 NW 20 26 11 14 1017.6 1017.7 -
06/08:00am 9.4 5.4 6.8 84 1.2 NW 17 22 9 12 1017.5 1017.6 -
06/07:30am 9.0 5.7 6.6 85 1.1 NNW 13 19 7 10 1017.3 1017.4 -
06/07:00am 8.3 5.4 6.6 89 0.8 NW 11 15 6 8 1017.1 1017.2 -
06/06:30am 9.1 5.0 6.2 82 1.3 NNW 17 22 9 12 1016.8 1016.9 -
06/06:00am 9.2 4.4 5.8 79 1.6 NNW 20 28 11 15 1016.4 1016.5 -
06/05:30am 6.6 3.4 4.9 89 0.7 NNE 11 17 6 9 1016.5 1016.6 -
06/05:00am 7.0 2.8 5.6 91 0.6 NNE 17 20 9 11 1016.3 1016.4 -
06/04:30am 7.6 2.9 5.9 89 0.8 N 20 26 11 14 1016.3 1016.4 -
06/04:00am 7.7 3.5 5.8 88 0.9 N 17 19 9 10 1016.5 1016.6 -
06/03:30am 10.6 4.8 6.2 74 2.1 NNW 26 35 14 19 1016.5 1016.6 -
06/03:00am 11.1 5.2 6.0 71 2.4 NNW 26 32 14 17 1016.8 1016.9 0.0
06/02:30am 11.8 7.0 5.7 66 2.8 N 20 32 11 17 1016.4 1016.5 -
06/02:00am 9.0 3.3 4.8 75 1.9 NNE 24 32 13 17 1016.4 1016.5 -
06/01:30am 12.9 6.3 4.1 55 4.0 NNW 28 41 15 22 1016.9 1017.0 -
06/01:23am 13.0 6.4 4.2 55 4.0 NNW 28 41 15 22 1017.0 1017.1 -
06/01:00am 8.6 4.2 4.6 76 1.8 N 17 22 9 12 1017.2 1017.3 -
06/12:30am 8.8 3.0 4.4 74 1.9 NNE 24 28 13 15 1017.0 1017.1 -
06/12:00am 9.2 4.2 4.4 72 2.1 N 20 26 11 14 1017.3 1017.4 -
 
Date/Time
CST
Temp
°C
App
Temp
°C
Dew
Point
Rel
Hum
%
Delta-T
°C
Wind Press
QNH
hPa
Press
MSL
hPa
Rain
since 9 am
mm
Dir
 
Spd
km/h
Gust
km/h
Spd
kts
Gust
kts
05/11:30pm 13.5 6.5 4.1 53 4.3 NNW 30 37 16 20 1017.4 1017.5 -
05/11:00pm 13.4 7.6 4.6 55 4.1 NNW 24 35 13 19 1017.6 1017.7 -
05/10:58pm 13.4 7.6 4.6 55 4.1 NNW 24 35 13 19 1017.6 1017.7 -
05/10:30pm 8.3 3.9 4.7 78 1.6 N 17 20 9 11 1017.5 1017.6 -
05/10:00pm 8.2 3.2 4.4 77 1.7 NNE 20 28 11 15 1017.8 1017.9 -
05/09:30pm 9.7 4.0 4.7 71 2.2 NNE 24 33 13 18 1017.8 1017.9 -
05/09:00pm 9.5 4.2 4.9 73 2.1 NNE 22 33 12 18 1017.9 1018.0 -
05/08:30pm 8.9 3.5 4.7 75 1.9 NNE 22 26 12 14 1017.9 1018.0 -
05/08:00pm 7.7 2.7 4.7 81 1.3 NNE 20 24 11 13 1017.9 1018.0 -
05/07:30pm 8.8 3.8 4.6 75 1.9 N 20 22 11 12 1018.0 1018.1 -
05/07:00pm 9.7 5.3 4.9 72 2.2 N 17 22 9 12 1017.8 1017.9 -
05/06:30pm 8.4 4.4 4.8 78 1.6 N 15 17 8 9 1017.6 1017.7 -
05/06:00pm 8.4 6.0 4.2 75 1.8 NNE 6 7 3 4 1017.6 1017.7 -
05/05:30pm 9.6 6.3 4.6 71 2.2 NNE 11 13 6 7 1017.6 1017.7 -
05/05:00pm 12.8 9.2 5.2 60 3.5 NNE 13 17 7 9 1017.5 1017.6 -
05/04:30pm 14.8 10.8 5.1 52 4.6 N 15 19 8 10 1017.7 1017.8 -
05/04:00pm 15.7 10.8 5.0 49 5.1 NNW 20 28 11 15 1017.8 1017.9 -
05/03:30pm 16.1 10.3 4.2 45 5.6 NNW 24 32 13 17 1018.0 1018.1 0.2
05/03:00pm 16.3 10.2 4.7 46 5.5 NNW 26 33 14 18 1018.1 1018.3 0.2
05/02:30pm 16.5 10.7 4.5 45 5.7 NNW 24 32 13 17 1018.3 1018.5 0.2
05/02:00pm 16.4 10.3 4.8 46 5.5 NNW 26 33 14 18 1018.4 1018.6 0.2
05/01:30pm 16.4 10.7 5.1 47 5.4 NNW 24 32 13 17 1018.7 1018.9 0.2
05/01:00pm 15.8 9.3 4.5 47 5.3 NNW 28 37 15 20 1019.0 1019.2 0.2
05/12:30pm 15.8 10.3 6.0 52 4.7 NNW 24 33 13 18 1019.6 1019.8 0.2
05/12:00pm 15.8 10.9 7.0 56 4.3 NNW 22 28 12 15 1020.1 1020.3 0.2
05/11:30am 14.7 10.2 6.8 59 3.9 NNW 20 28 11 15 1020.7 1020.9 0.2
05/11:00am 14.4 9.4 6.3 58 3.9 NNW 22 28 12 15 1021.2 1021.4 0.2
05/10:30am 13.9 9.9 6.7 62 3.5 N 17 24 9 13 1021.3 1021.5 0.2
05/10:00am 11.3 7.5 7.4 77 1.9 NE 17 19 9 10 1021.3 1021.5 0.0
05/09:30am 9.4 5.4 6.5 82 1.3 NNE 17 20 9 11 1021.3 1021.5 0.0
05/09:00am 7.4 4.0 5.7 89 0.8 N 13 17 7 9 1021.4 1021.6 0.0
05/08:30am 5.3 0.2 4.0 91 0.5 N 20 22 11 12 1021.2 1021.4 0.0
05/08:00am 5.2 -0.3 3.9 91 0.5 N 22 24 12 13 1021.1 1021.3 0.0
05/07:30am 4.1 -1.1 3.4 95 0.3 N 20 22 11 12 1021.1 1021.3 0.0
05/07:00am 2.6 -2.9 2.0 96 0.2 N 20 24 11 13 1020.9 1021.1 0.0
05/06:30am 2.9 -2.0 2.3 96 0.2 N 17 19 9 10 1020.9 1021.1 0.0
05/06:00am 2.6 -2.3 2.0 96 0.2 N 17 19 9 10 1020.9 1021.1 0.0
05/05:30am 2.7 -2.6 2.1 96 0.2 N 19 20 10 11 1020.8 1021.0 0.0
05/05:00am 3.2 -1.6 2.5 95 0.3 N 17 19 9 10 1020.7 1020.9 0.0
05/04:30am 3.2 -1.6 2.5 95 0.3 N 17 20 9 11 1020.6 1020.8 0.0
05/04:00am 3.9 -0.8 3.0 94 0.4 N 17 20 9 11 1020.7 1020.9 0.0
05/03:30am 4.0 -0.7 3.4 96 0.2 N 17 19 9 10 1020.8 1021.0 0.0
05/03:00am 3.5 -0.9 2.9 96 0.2 N 15 17 8 9 1020.9 1021.1 0.0
05/02:30am 3.2 -0.8 2.8 97 0.2 N 13 15 7 8 1021.0 1021.2 0.0
05/02:00am 3.3 -0.7 2.7 96 0.2 N 13 15 7 8 1021.0 1021.2 0.0
05/01:30am 3.6 -0.7 3.0 96 0.2 N 15 19 8 10 1021.1 1021.3 0.0
05/01:00am 3.3 -0.7 2.7 96 0.2 N 13 17 7 9 1021.4 1021.6 0.0
05/12:30am 3.4 -0.2 2.8 96 0.2 N 11 13 6 7 1021.7 1021.9 0.0
05/12:00am 4.0 -0.6 3.6 97 0.2 N 17 17 9 9 1022.0 1022.2 0.0
 
Date/Time
CST
Temp
°C
App
Temp
°C
Dew
Point
Rel
Hum
%
Delta-T
°C
Wind Press
QNH
hPa
Press
MSL
hPa
Rain
since 9 am
mm
Dir
 
Spd
km/h
Gust
km/h
Spd
kts
Gust
kts
04/11:30pm 4.0 0.1 3.6 97 0.2 N 13 15 7 8 1022.0 1022.2 0.0
04/11:00pm 4.5 0.3 3.6 94 0.4 N 15 17 8 9 1022.0 1022.2 0.0
04/10:30pm 6.0 2.0 4.8 92 0.5 N 15 17 8 9 1022.1 1022.3 0.0
04/10:00pm 6.6 3.0 5.2 91 0.6 N 13 17 7 9 1022.2 1022.4 0.0
04/09:30pm 7.3 3.5 5.8 90 0.7 N 15 19 8 10 1022.5 1022.6 0.0
04/09:00pm 6.6 2.3 5.4 92 0.5 N 17 19 9 10 1022.5 1022.6 0.0
04/08:30pm 5.3 1.1 4.0 91 0.5 NNE 15 15 8 8 1022.5 1022.6 0.0
04/08:00pm 7.1 2.8 5.1 87 0.9 NNE 17 20 9 11 1022.3 1022.5 0.0
04/07:30pm 7.9 5.2 5.7 86 1.0 NW 9 17 5 9 1022.2 1022.4 0.0
04/07:00pm 6.6 4.1 4.9 89 0.7 WNW 7 15 4 8 1022.2 1022.4 0.0
04/06:30pm 7.4 4.3 5.7 89 0.8 NW 11 13 6 7 1022.3 1022.5 0.0
04/06:00pm 8.3 5.2 5.6 83 1.2 NW 11 13 6 7 1021.9 1022.1 0.0
04/05:30pm 10.7 8.1 6.1 73 2.1 WNW 9 13 5 7 1021.7 1021.9 0.0
04/05:00pm 13.1 10.7 7.1 67 2.9 NNW 9 11 5 6 1021.7 1021.9 0.0
04/04:30pm 14.8 12.7 8.1 64 3.4 NNE 9 11 5 6 1021.8 1022.0 0.0

Other Formats:

Comma delimited format used in spreadsheet applications
http://www.bom.gov.au/fwo/IDS60801/IDS60801.95670.axf

JavaScript Object Notation format (JSON) in row-major order
http://www.bom.gov.au/fwo/IDS60801/IDS60801.95670.json